Time;durP1;ratioP1;P1;durP2;ratioP2;P2;SDS_P1;SDS_P2;PMS_P1;PMS_P2;Temp;Humidity;BMP_temperature;BMP_pressure;BME280_temperature;BME280_humidity;BME280_pressure;Samples;Min_cycle;Max_cycle;Signal;HPM_P1;HPM_P2
2022/03/04 00:02:00;;;;;;;192.35;69.97;;;;;;;-149.78;100.00;50475.34;4789900;29;20043;-69
2022/03/04 00:04:26;;;;;;;184.63;67.90;;;;;;;-149.78;100.00;50494.91;4805965;29;20039;-69
2022/03/04 00:06:56;;;;;;;187.05;68.00;;;;;;;-149.78;100.00;50506.66;4805960;29;20076;-69
2022/03/04 00:09:21;;;;;;;184.05;65.53;;;;;;;-149.78;100.00;50473.41;4819372;29;20046;-69
2022/03/04 00:11:48;;;;;;;171.82;66.13;;;;;;;-149.78;100.00;50498.81;4823984;29;20038;-69
2022/03/04 00:14:14;;;;;;;168.77;62.97;;;;;;;-149.78;100.00;50514.47;4807633;29;20100;-69
2022/03/04 00:16:40;;;;;;;166.43;64.57;;;;;;;-149.78;100.00;50461.66;4807469;29;20559;-69
2022/03/04 00:19:09;;;;;;;163.07;61.72;;;;;;;-149.78;100.00;50471.44;4825231;29;20516;-69
2022/03/04 00:21:44;;;;;;;161.68;62.08;;;;;;;-149.78;100.00;50483.19;4826149;29;20098;-70
2022/03/04 00:24:11;;;;;;;154.63;62.67;;;;;;;-149.78;100.00;50522.28;4827226;29;20038;-69
2022/03/04 00:26:39;;;;;;;159.25;60.65;;;;;;;-149.78;100.00;50516.44;4827462;29;20494;-69
2022/03/04 00:29:06;;;;;;;156.82;60.92;;;;;;;-149.78;100.00;50504.69;4827117;29;20053;-70
2022/03/04 00:31:33;;;;;;;152.48;57.92;;;;;;;-149.78;100.00;50512.50;4819130;29;20043;-70
2022/03/04 00:33:59;;;;;;;154.23;59.42;;;;;;;-149.78;100.00;50491.00;4789924;30;20043;-69
2022/03/04 00:36:26;;;;;;;137.25;54.63;;;;;;;-149.78;100.00;50494.91;4791069;30;20848;-70
2022/03/04 00:38:53;;;;;;;143.05;56.20;;;;;;;-149.78;100.00;50491.00;4790008;30;20044;-70
2022/03/04 00:41:21;;;;;;;135.18;54.70;;;;;;;-149.78;100.00;50481.22;4790920;30;20039;-70
2022/03/04 00:43:48;;;;;;;129.65;52.67;;;;;;;-149.78;100.00;50502.75;4791068;30;20036;-70
2022/03/04 00:46:14;;;;;;;125.53;53.35;;;;;;;-149.78;100.00;50491.00;4790711;30;20350;-70
2022/03/04 00:48:44;;;;;;;125.38;50.25;;;;;;;-149.78;100.00;50498.81;4790912;30;20511;-70
2022/03/04 00:51:12;;;;;;;121.03;49.10;;;;;;;-149.78;100.00;50510.56;4790702;30;20043;-70
2022/03/04 00:53:38;;;;;;;119.43;49.38;;;;;;;-149.78;100.00;50526.22;4790679;30;20085;-70
2022/03/04 00:56:06;;;;;;;126.60;51.42;;;;;;;-149.78;100.00;50491.00;4790632;30;20039;-70
2022/03/04 00:58:34;;;;;;;159.82;61.38;;;;;;;-149.78;100.00;50489.03;4790751;30;20039;-70
2022/03/04 01:01:00;;;;;;;151.52;58.67;;;;;;;-149.78;100.00;50489.03;4790823;30;20459;-70
2022/03/04 01:03:26;;;;;;;125.13;51.78;;;;;;;-149.78;100.00;50471.44;4790617;30;20051;-70
2022/03/04 01:05:51;;;;;;;146.45;56.72;;;;;;;-149.78;100.00;50487.09;4789526;29;20051;-70
2022/03/04 01:08:17;;;;;;;147.98;56.33;;;;;;;-149.78;100.00;50504.69;4801393;29;20035;-70
2022/03/04 01:10:43;;;;;;;151.32;56.72;;;;;;;-149.78;100.00;50463.63;4825514;29;20042;-70
2022/03/04 01:13:09;;;;;;;160.68;60.97;;;;;;;-149.78;100.00;50530.13;4810130;29;20066;-70
2022/03/04 01:15:35;;;;;;;155.05;58.30;;;;;;;-149.78;100.00;50502.75;4826530;29;20478;-70
2022/03/04 01:18:01;;;;;;;149.13;59.05;;;;;;;-149.78;100.00;50494.91;4797140;29;20118;-70
2022/03/04 01:20:31;;;;;;;142.38;55.88;;;;;;;-149.78;100.00;50479.28;4807308;29;20063;-70
2022/03/04 01:22:57;;;;;;;136.95;55.08;;;;;;;-149.78;100.00;50510.56;4791987;29;20100;-70
2022/03/04 01:25:23;;;;;;;139.18;56.13;;;;;;;-149.78;100.00;50508.59;4807083;29;20144;-70
2022/03/04 01:27:49;;;;;;;131.32;51.58;;;;;;;-149.78;100.00;50502.75;4791893;29;20045;-70
2022/03/04 01:30:16;;;;;;;83.50;36.25;;;;;;;-149.78;100.00;50500.78;4791143;29;20151;-70
2022/03/04 01:32:42;;;;;;;88.90;37.72;;;;;;;-149.78;100.00;50498.81;4808220;29;20049;-70
2022/03/04 01:35:08;;;;;;;100.72;42.78;;;;;;;-149.78;100.00;50510.56;4808206;29;20050;-69
2022/03/04 01:37:35;;;;;;;82.63;37.45;;;;;;;-149.78;100.00;50506.66;4791738;29;20387;-70
2022/03/04 01:40:02;;;;;;;59.67;30.20;;;;;;;-149.78;100.00;50479.28;4808096;29;20121;-70
2022/03/04 01:42:28;;;;;;;59.90;29.15;;;;;;;-149.78;100.00;50535.97;4807897;29;20042;-70
2022/03/04 01:44:53;;;;;;;56.65;28.70;;;;;;;-149.78;100.00;50502.75;4806935;29;20038;-70
2022/03/04 01:47:19;;;;;;;51.63;26.83;;;;;;;-149.78;100.00;50491.00;4807894;29;20488;-70
2022/03/04 01:49:45;;;;;;;44.15;23.80;;;;;;;-149.78;100.00;50475.34;4806749;29;20100;-70
2022/03/04 01:52:11;;;;;;;32.92;17.55;;;;;;;-149.78;100.00;50506.66;4807861;29;20156;-70
2022/03/04 01:54:36;;;;;;;21.75;12.07;;;;;;;-149.78;100.00;50506.66;4806577;29;20034;-70
2022/03/04 01:57:03;;;;;;;18.67;9.80;;;;;;;-149.78;100.00;50467.53;4791732;29;20046;-69
2022/03/04 01:59:29;;;;;;;15.15;8.60;;;;;;;-149.78;100.00;50522.28;4806565;29;20376;-69
2022/03/04 02:01:55;;;;;;;17.63;8.65;;;;;;;-149.78;100.00;50522.28;4807698;29;20129;-69
2022/03/04 02:04:25;;;;;;;19.25;9.32;;;;;;;-149.78;100.00;50498.81;4791440;29;20121;-70
2022/03/04 02:06:51;;;;;;;15.57;8.93;;;;;;;-149.78;100.00;50518.38;4807587;29;20030;-69
2022/03/04 02:09:19;;;;;;;13.45;7.38;;;;;;;-149.78;100.00;50530.13;4804391;29;20039;-69
2022/03/04 02:11:45;;;;;;;13.02;7.80;;;;;;;-149.78;100.00;50510.56;4825428;29;20054;-69
2022/03/04 02:14:12;;;;;;;13.35;6.78;;;;;;;-149.78;100.00;50498.81;4808568;29;20046;-69
2022/03/04 02:16:44;;;;;;;10.52;6.30;;;;;;;-149.78;100.00;50530.13;4820781;29;20038;-69
2022/03/04 02:19:09;;;;;;;12.50;6.72;;;;;;;-149.78;100.00;50498.81;4806466;29;20502;-69
2022/03/04 02:21:35;;;;;;;9.95;5.43;;;;;;;-149.78;100.00;50500.78;4806874;29;20043;-69
2022/03/04 02:24:02;;;;;;;10.50;5.30;;;;;;;-149.78;100.00;50510.56;4807667;29;20034;-69
2022/03/04 02:26:28;;;;;;;6.57;4.10;;;;;;;-149.78;100.00;50518.38;4812180;29;20042;-69
2022/03/04 02:28:54;;;;;;;7.88;4.70;;;;;;;-149.78;100.00;50494.91;4808654;29;20042;-66
2022/03/04 02:31:21;;;;;;;6.07;3.80;;;;;;;-149.78;100.00;50530.13;4824188;29;20059;-67
2022/03/04 02:33:50;;;;;;;7.15;4.07;;;;;;;-149.78;100.00;50518.38;4825155;29;20356;-66
2022/03/04 02:36:15;;;;;;;5.55;3.17;;;;;;;-149.78;100.00;50494.91;4825234;29;20038;-67
2022/03/04 02:38:43;;;;;;;5.85;3.03;;;;;;;-149.78;100.00;50534.03;4809047;29;20050;-66
2022/03/04 02:41:08;;;;;;;5.43;3.13;;;;;;;-149.78;100.00;50487.09;4824548;29;20042;-66
2022/03/04 02:43:34;;;;;;;3.55;2.42;;;;;;;-149.78;100.00;50534.03;4824921;29;20512;-67
2022/03/04 02:46:00;;;;;;;3.67;2.33;;;;;;;-149.78;100.00;50491.00;4825105;29;20042;-67
2022/03/04 02:48:26;;;;;;;4.80;2.33;;;;;;;-149.78;100.00;50532.06;4823917;29;20041;-67
2022/03/04 02:50:52;;;;;;;3.85;2.40;;;;;;;-149.78;100.00;50520.34;4823903;29;20050;-67
2022/03/04 02:53:18;;;;;;;3.63;2.05;;;;;;;-149.78;100.00;50561.41;4824865;29;20039;-67
2022/03/04 02:55:43;;;;;;;2.58;1.90;;;;;;;-149.78;100.00;50502.75;4823945;29;20042;-67
2022/03/04 02:58:09;;;;;;;2.60;1.85;;;;;;;-149.78;100.00;50520.34;4824861;29;20030;-67
2022/03/04 03:00:36;;;;;;;3.60;2.20;;;;;;;-149.78;100.00;50498.81;4808563;29;20053;-67
2022/03/04 03:03:01;;;;;;;3.58;2.33;;;;;;;-149.78;100.00;50506.66;4824838;29;20046;-66
2022/03/04 03:05:27;;;;;;;3.20;2.17;;;;;;;-149.78;100.00;50483.19;4816370;29;20039;-67
2022/03/04 03:07:53;;;;;;;3.25;2.47;;;;;;;-149.78;100.00;50522.28;4788132;29;20657;-66
2022/03/04 03:10:19;;;;;;;3.53;2.13;;;;;;;-149.78;100.00;50522.28;4789025;29;20039;-67
2022/03/04 03:12:45;;;;;;;5.07;2.10;;;;;;;-149.78;100.00;50510.56;4805234;29;20057;-67
2022/03/04 03:15:12;;;;;;;2.83;2.20;;;;;;;-149.78;100.00;50541.84;4805027;29;20035;-67
2022/03/04 03:17:38;;;;;;;2.33;1.73;;;;;;;-149.78;100.00;50532.06;4807086;29;20492;-67
2022/03/04 03:20:05;;;;;;;3.88;2.08;;;;;;;-149.78;100.00;50541.84;4805245;29;20066;-67
2022/03/04 03:22:31;;;;;;;4.45;2.05;;;;;;;-149.78;100.00;50534.03;4806282;29;20046;-67
2022/03/04 03:24:57;;;;;;;4.20;2.20;;;;;;;-149.78;100.00;50526.22;4805064;29;20390;-67
2022/03/04 03:27:22;;;;;;;3.30;1.80;;;;;;;-149.78;100.00;50518.38;4790081;29;20099;-67
2022/03/04 03:29:48;;;;;;;2.13;1.75;;;;;;;-149.78;100.00;50522.28;4790137;29;20059;-66
2022/03/04 03:32:14;;;;;;;4.05;1.70;;;;;;;-149.78;100.00;50541.84;4806165;29;20045;-67
2022/03/04 03:34:40;;;;;;;2.25;1.73;;;;;;;-149.78;100.00;50518.38;4795995;29;20059;-68
2022/03/04 03:37:07;;;;;;;2.40;1.58;;;;;;;-149.78;100.00;50561.41;4806114;29;20039;-67
2022/03/04 03:39:33;;;;;;;2.58;1.45;;;;;;;-149.78;100.00;50477.31;4805847;29;20042;-67
2022/03/04 03:41:59;;;;;;;2.33;1.40;;;;;;;-149.78;100.00;50514.47;4806066;29;20449;-67
2022/03/04 03:44:25;;;;;;;1.85;1.35;;;;;;;-149.78;100.00;50522.28;4792621;29;20154;-67
2022/03/04 03:46:51;;;;;;;1.80;1.50;;;;;;;-149.78;100.00;50518.38;4805932;29;20035;-67
2022/03/04 03:49:17;;;;;;;3.17;1.45;;;;;;;-149.78;100.00;50547.72;4802090;29;20035;-68
2022/03/04 03:51:43;;;;;;;3.08;1.27;;;;;;;-149.78;100.00;50514.47;4789374;29;20045;-67
2022/03/04 03:54:09;;;;;;;2.20;1.65;;;;;;;-149.78;100.00;50530.13;4808494;29;20122;-67
2022/03/04 03:56:36;;;;;;;1.42;1.30;;;;;;;-149.78;100.00;50514.47;4780888;29;20397;-67
2022/03/04 03:59:02;;;;;;;2.65;1.60;;;;;;;-149.78;100.00;50547.72;4799257;29;20062;-67
2022/03/04 04:01:28;;;;;;;2.22;1.63;;;;;;;-149.78;100.00;50502.75;4809724;29;20039;-67
2022/03/04 04:03:54;;;;;;;2.95;1.90;;;;;;;-149.78;100.00;50537.94;4793501;29;20035;-67
2022/03/04 04:06:20;;;;;;;3.75;2.17;;;;;;;-149.78;100.00;50563.38;4808112;29;20049;-68
2022/03/04 04:08:46;;;;;;;2.83;2.05;;;;;;;-149.78;100.00;50534.03;4793205;29;20047;-67
2022/03/04 04:11:12;;;;;;;3.53;2.25;;;;;;;-149.78;100.00;50514.47;4809502;29;20130;-67
2022/03/04 04:13:38;;;;;;;3.10;2.38;;;;;;;-149.78;100.00;50534.03;4809344;29;20039;-67
2022/03/04 04:16:04;;;;;;;3.50;2.47;;;;;;;-149.78;100.00;50534.03;4808172;29;20047;-68
2022/03/04 04:18:29;;;;;;;4.78;2.50;;;;;;;-149.78;100.00;50565.31;4809398;29;20046;-68
2022/03/04 04:20:55;;;;;;;5.60;2.33;;;;;;;-149.78;100.00;50510.56;4808188;29;20179;-67
2022/03/04 04:23:21;;;;;;;4.57;2.97;;;;;;;-149.78;100.00;50510.56;4809264;29;20038;-67
2022/03/04 04:25:47;;;;;;;4.10;2.90;;;;;;;-149.78;100.00;50518.38;4809344;29;20039;-67
2022/03/04 04:28:13;;;;;;;3.33;2.60;;;;;;;-149.78;100.00;50526.22;4809061;29;20052;-67
2022/03/04 04:30:39;;;;;;;3.28;2.38;;;;;;;-149.78;100.00;50516.44;4799680;29;20086;-68
2022/03/04 04:33:04;;;;;;;3.40;2.15;;;;;;;-149.78;100.00;50537.94;4827035;29;20129;-68
2022/03/04 04:35:30;;;;;;;3.30;2.30;;;;;;;-149.78;100.00;50526.22;4810873;29;20095;-68
2022/03/04 04:37:57;;;;;;;2.78;2.08;;;;;;;-149.78;100.00;50573.16;4826998;29;20059;-68
2022/03/04 04:40:22;;;;;;;3.78;2.45;;;;;;;-149.78;100.00;50526.22;4810851;29;20042;-68
2022/03/04 04:42:48;;;;;;;3.38;2.30;;;;;;;-149.78;100.00;50508.59;4810743;29;20414;-68
2022/03/04 04:45:13;;;;;;;4.28;2.17;;;;;;;-149.78;100.00;50541.84;4795697;29;20125;-68
2022/03/04 04:47:39;;;;;;;2.95;2.08;;;;;;;-149.78;100.00;50506.66;4826887;29;20107;-68
2022/03/04 04:50:06;;;;;;;2.75;2.05;;;;;;;-149.78;100.00;50526.22;4810551;29;20066;-68
2022/03/04 04:52:31;;;;;;;3.33;2.15;;;;;;;-149.78;100.00;50543.81;4810523;29;20034;-68
2022/03/04 04:54:58;;;;;;;3.58;2.10;;;;;;;-149.78;100.00;50510.56;4808280;29;20054;-68
2022/03/04 04:57:23;;;;;;;3.20;2.20;;;;;;;-149.78;100.00;50557.50;4794934;29;20042;-68
2022/03/04 04:59:49;;;;;;;4.35;2.20;;;;;;;-149.78;100.00;50537.94;4798662;29;20077;-68
2022/03/04 05:02:15;;;;;;;2.80;2.25;;;;;;;-149.78;100.00;50537.94;4808540;29;20066;-68
2022/03/04 05:04:41;;;;;;;3.78;2.30;;;;;;;-149.78;100.00;50549.69;4807486;29;20114;-68
2022/03/04 05:07:06;;;;;;;3.00;2.25;;;;;;;-149.78;100.00;50526.22;4792307;29;20076;-68
2022/03/04 05:09:32;;;;;;;2.60;2.00;;;;;;;-149.78;100.00;50561.41;4792331;29;20035;-68
2022/03/04 05:11:57;;;;;;;3.38;1.90;;;;;;;-149.78;100.00;50502.75;4808463;29;20514;-68
2022/03/04 05:14:23;;;;;;;3.42;2.05;;;;;;;-149.78;100.00;50522.28;4807170;29;20053;-68
2022/03/04 05:16:49;;;;;;;2.53;1.90;;;;;;;-149.78;100.00;50569.22;4807289;29;20047;-68
2022/03/04 05:19:14;;;;;;;3.63;2.22;;;;;;;-149.78;100.00;50534.03;4791521;29;20039;-68
2022/03/04 05:21:40;;;;;;;3.80;2.63;;;;;;;-149.78;100.00;50498.81;4807101;29;20065;-68
2022/03/04 05:24:07;;;;;;;3.35;2.05;;;;;;;-149.78;100.00;50537.94;4808420;29;20066;-68
2022/03/04 05:26:38;;;;;;;4.38;2.20;;;;;;;-149.78;100.00;50530.13;4808272;29;20414;-68
2022/03/04 05:29:09;;;;;;;3.55;2.30;;;;;;;-149.78;100.00;50500.78;4808140;29;20095;-68
2022/03/04 05:31:35;;;;;;;4.28;2.40;;;;;;;-149.78;100.00;50510.56;4791718;29;20065;-68
2022/03/04 05:34:01;;;;;;;2.97;2.00;;;;;;;-149.78;100.00;50561.41;4808098;29;20034;-68
2022/03/04 05:36:27;;;;;;;3.20;2.33;;;;;;;-149.78;100.00;50512.50;4791739;29;20596;-69
2022/03/04 05:38:52;;;;;;;4.70;2.55;;;;;;;-149.78;100.00;50573.16;4808139;29;20031;-68
2022/03/04 05:41:18;;;;;;;3.85;2.50;;;;;;;-149.78;100.00;50530.13;4807873;29;20404;-69
2022/03/04 05:43:45;;;;;;;4.22;2.80;;;;;;;-149.78;100.00;50522.28;4824142;29;20062;-68
2022/03/04 05:46:11;;;;;;;4.35;2.40;;;;;;;-149.78;100.00;50526.22;4809654;29;20046;-68
2022/03/04 05:48:37;;;;;;;4.68;2.60;;;;;;;-149.78;100.00;50510.56;4825975;29;20095;-68
2022/03/04 05:51:03;;;;;;;5.03;2.80;;;;;;;-149.78;100.00;50504.69;4809733;29;20399;-68
2022/03/04 05:53:30;;;;;;;4.35;2.78;;;;;;;-149.78;100.00;50524.25;4825655;29;20172;-68
2022/03/04 05:55:56;;;;;;;4.85;2.83;;;;;;;-149.78;100.00;50553.59;4824718;29;20083;-68
2022/03/04 05:58:22;;;;;;;6.25;2.60;;;;;;;-149.78;100.00;50547.72;4825595;29;20038;-68
2022/03/04 06:00:47;;;;;;;4.65;2.65;;;;;;;-149.78;100.00;50534.03;4809424;29;20174;-68
2022/03/04 06:03:13;;;;;;;4.30;2.63;;;;;;;-149.78;100.00;50491.00;4818120;29;20439;-68
2022/03/04 06:05:39;;;;;;;4.82;2.63;;;;;;;-149.78;100.00;50557.50;4807605;29;20057;-68
2022/03/04 06:08:04;;;;;;;3.60;2.55;;;;;;;-149.78;100.00;50537.94;4807411;29;20406;-68
2022/03/04 06:10:30;;;;;;;4.40;2.47;;;;;;;-149.78;100.00;50534.03;4807483;29;20042;-68
2022/03/04 06:12:56;;;;;;;4.18;2.60;;;;;;;-149.78;100.00;50516.44;4807403;29;20130;-68
2022/03/04 06:15:21;;;;;;;4.55;2.53;;;;;;;-149.78;100.00;50547.72;4807236;29;20514;-68
2022/03/04 06:17:50;;;;;;;6.20;2.60;;;;;;;-149.78;100.00;50553.59;4790895;29;20499;-68
2022/03/04 06:20:17;;;;;;;4.45;2.35;;;;;;;-149.78;100.00;50577.06;4791024;29;20035;-68
2022/03/04 06:22:43;;;;;;;4.07;2.65;;;;;;;-149.78;100.00;50557.50;4807357;29;20503;-68
2022/03/04 06:25:10;;;;;;;4.20;2.67;;;;;;;-149.78;100.00;50580.97;4807119;29;20053;-68
2022/03/04 06:27:37;;;;;;;5.20;3.10;;;;;;;-149.78;100.00;50565.31;4806018;29;20042;-68
2022/03/04 06:30:04;;;;;;;6.18;3.05;;;;;;;-149.78;100.00;50545.75;4805968;29;20050;-68
2022/03/04 06:32:30;;;;;;;4.32;2.80;;;;;;;-149.78;100.00;50510.56;4807210;29;20061;-68
2022/03/04 06:34:57;;;;;;;5.13;3.08;;;;;;;-149.78;100.00;50545.75;4806646;29;20459;-68
2022/03/04 06:37:23;;;;;;;7.32;2.97;;;;;;;-149.78;100.00;50537.94;4790838;29;20042;-68
2022/03/04 06:39:49;;;;;;;5.13;2.92;;;;;;;-149.78;100.00;50545.75;4807148;29;20042;-68
2022/03/04 06:42:15;;;;;;;5.70;3.05;;;;;;;-149.78;100.00;50549.69;4811965;29;20026;-68
2022/03/04 06:44:41;;;;;;;5.28;3.17;;;;;;;-149.78;100.00;50569.22;4808956;29;20190;-68
2022/03/04 06:47:07;;;;;;;4.88;2.78;;;;;;;-149.78;100.00;50565.31;4824884;29;20042;-68
2022/03/04 06:49:34;;;;;;;6.45;3.42;;;;;;;-149.78;100.00;50528.16;4825100;29;20073;-68
2022/03/04 06:52:00;;;;;;;6.85;3.60;;;;;;;-149.78;100.00;50522.28;4799128;29;20035;-69
2022/03/04 06:54:25;;;;;;;5.57;3.08;;;;;;;-149.78;100.00;50545.75;4789917;29;20813;-68
2022/03/04 06:56:51;;;;;;;5.85;3.00;;;;;;;-149.78;100.00;50549.69;4800399;29;20053;-68
2022/03/04 06:59:16;;;;;;;5.72;3.08;;;;;;;-149.78;100.00;50551.63;4804277;29;20043;-69
2022/03/04 07:01:43;;;;;;;4.90;2.80;;;;;;;-149.78;100.00;50530.13;4786962;29;20455;-69
2022/03/04 07:04:08;;;;;;;4.10;2.53;;;;;;;-149.78;100.00;50553.59;4800982;29;20026;-67
2022/03/04 07:06:34;;;;;;;4.97;2.67;;;;;;;-149.78;100.00;50569.22;4797261;29;20513;-68
2022/03/04 07:08:59;;;;;;;6.43;3.17;;;;;;;-149.78;100.00;50557.50;4798238;29;20136;-68
2022/03/04 07:11:25;;;;;;;5.20;2.92;;;;;;;-149.78;100.00;50604.44;4802444;29;20070;-69
2022/03/04 07:13:50;;;;;;;5.93;3.05;;;;;;;-149.78;100.00;50565.31;4804703;29;20434;-67
2022/03/04 07:16:16;;;;;;;6.05;3.40;;;;;;;-149.78;100.00;50565.31;4790040;29;20043;-67
2022/03/04 07:18:42;;;;;;;5.97;3.15;;;;;;;-149.78;100.00;50541.84;4805794;29;20531;-66
2022/03/04 07:21:08;;;;;;;8.13;3.40;;;;;;;-149.78;100.00;50551.63;4783627;29;20096;-67
2022/03/04 07:23:33;;;;;;;5.85;3.25;;;;;;;-149.78;100.00;50584.88;4788081;29;20027;-66
2022/03/04 07:26:00;;;;;;;6.38;3.60;;;;;;;-149.78;100.00;50537.94;4801660;29;20062;-67
2022/03/04 07:28:25;;;;;;;5.97;3.05;;;;;;;-149.78;100.00;50543.81;4805002;29;20122;-68
2022/03/04 07:30:51;;;;;;;5.78;3.33;;;;;;;-149.78;100.00;50547.72;4805077;29;20100;-65
2022/03/04 07:33:17;;;;;;;5.18;3.10;;;;;;;-149.78;100.00;50596.63;4806058;29;20035;-66
2022/03/04 07:35:45;;;;;;;7.80;3.05;;;;;;;-149.78;100.00;50539.91;4775153;29;20043;-65
2022/03/04 07:38:13;;;;;;;7.57;3.50;;;;;;;-149.78;100.00;50530.13;4802769;29;20053;-65
2022/03/04 07:40:39;;;;;;;5.13;2.58;;;;;;;-149.78;100.00;50545.75;4804469;29;20039;-66
2022/03/04 07:43:06;;;;;;;6.78;3.15;;;;;;;-149.78;100.00;50588.78;4817233;29;20408;-66
2022/03/04 07:45:33;;;;;;;6.10;3.35;;;;;;;-149.78;100.00;50530.13;4806597;29;20050;-66
2022/03/04 07:47:59;;;;;;;6.18;3.30;;;;;;;-149.78;100.00;50534.03;4824328;29;20606;-66
2022/03/04 07:50:25;;;;;;;3.85;2.55;;;;;;;-149.78;100.00;50541.84;4808410;29;20079;-66
2022/03/04 07:52:52;;;;;;;5.72;2.72;;;;;;;-149.78;100.00;50584.88;4809324;29;20495;-66
2022/03/04 07:55:18;;;;;;;4.50;2.40;;;;;;;-149.78;100.00;50584.88;4791734;29;20050;-66
2022/03/04 07:57:44;;;;;;;3.97;2.35;;;;;;;-149.78;100.00;50569.22;4810867;29;20042;-65
2022/03/04 08:00:13;;;;;;;4.82;2.80;;;;;;;-149.78;100.00;50579.00;4815633;29;20076;-66
2022/03/04 08:02:39;;;;;;;5.07;2.80;;;;;;;-149.78;100.00;50588.78;4800474;29;20055;-65
2022/03/04 08:05:08;;;;;;;6.00;2.65;;;;;;;-149.78;100.00;50592.72;4796390;29;20039;-66
2022/03/04 08:07:37;;;;;;;3.72;2.10;;;;;;;-149.78;100.00;50580.97;4797796;29;20143;-67
2022/03/04 08:10:08;;;;;;;2.85;1.60;;;;;;;-149.78;100.00;50541.84;4789231;29;20571;-67
2022/03/04 08:12:34;;;;;;;2.45;1.75;;;;;;;-149.78;100.00;50545.75;4789326;29;20054;-66
2022/03/04 08:15:00;;;;;;;2.38;1.48;;;;;;;-149.78;100.00;50553.59;4807226;29;20044;-67
2022/03/04 08:17:26;;;;;;;2.20;1.50;;;;;;;-149.78;100.00;50534.03;4790956;29;20042;-67
2022/03/04 08:19:51;;;;;;;2.33;1.50;;;;;;;-149.78;100.00;50573.16;4807757;29;20081;-67
2022/03/04 08:22:17;;;;;;;3.05;1.55;;;;;;;-149.78;100.00;50596.63;4788638;29;20038;-67
2022/03/04 08:24:43;;;;;;;24.23;2.13;;;;;;;-149.78;100.00;50543.81;4807403;29;20091;-67
2022/03/04 08:27:09;;;;;;;2.65;1.40;;;;;;;-149.78;100.00;50592.72;4792476;29;20053;-67
2022/03/04 08:29:34;;;;;;;2.67;1.60;;;;;;;-149.78;100.00;50532.06;4808144;29;20042;-67
2022/03/04 08:32:01;;;;;;;1.77;1.40;;;;;;;-149.78;100.00;50553.59;4796179;29;20061;-66
2022/03/04 08:34:27;;;;;;;1.80;1.65;;;;;;;-149.78;100.00;50545.75;4797868;29;20915;-66
2022/03/04 08:36:53;;;;;;;2.45;1.63;;;;;;;-149.78;100.00;50510.56;4819623;29;20042;-66
2022/03/04 08:39:18;;;;;;;2.33;1.50;;;;;;;-149.78;100.00;50577.06;4824950;29;20034;-66
2022/03/04 08:41:44;;;;;;;2.13;0.95;;;;;;;-149.78;100.00;50534.03;4825337;29;20045;-65
2022/03/04 08:44:09;;;;;;;0.93;0.82;;;;;;;-149.78;100.00;50557.50;4826350;29;20038;-65
2022/03/04 08:46:38;;;;;;;0.70;0.70;;;;;;;-149.78;100.00;50563.38;4825867;29;20074;-66
2022/03/04 08:49:03;;;;;;;0.80;0.70;;;;;;;-149.78;100.00;50541.84;4824818;29;20441;-65
2022/03/04 08:51:29;;;;;;;1.63;0.73;;;;;;;-149.78;100.00;50522.28;4824837;29;20050;-66
2022/03/04 08:53:55;;;;;;;1.35;1.00;;;;;;;-149.78;100.00;50530.13;4825717;29;20046;-66
2022/03/04 08:56:21;;;;;;;1.13;0.90;;;;;;;-149.78;100.00;50549.69;4824752;29;20050;-66
2022/03/04 08:58:48;;;;;;;1.38;0.85;;;;;;;-149.78;100.00;50557.50;4808872;29;20133;-66
2022/03/04 09:01:13;;;;;;;1.15;0.80;;;;;;;-149.78;100.00;50535.97;4792595;29;20219;-68
2022/03/04 09:03:39;;;;;;;1.25;0.80;;;;;;;-149.78;100.00;50537.94;4808653;29;20118;-65
2022/03/04 09:06:05;;;;;;;0.90;0.70;;;;;;;-149.78;100.00;50598.56;4808420;29;20049;-66
2022/03/04 09:08:31;;;;;;;1.10;0.80;;;;;;;-149.78;100.00;50553.59;4806600;29;20047;-67
2022/03/04 09:10:56;;;;;;;0.80;0.80;;;;;;;-149.78;100.00;50580.97;4793816;29;20043;-68
2022/03/04 09:13:22;;;;;;;4.03;1.02;;;;;;;-149.78;100.00;50565.31;4789385;29;20066;-68
2022/03/04 09:15:48;;;;;;;1.27;1.10;;;;;;;-149.78;100.00;50534.03;4790311;30;20122;-69
2022/03/04 09:18:13;;;;;;;1.42;0.98;;;;;;;-149.78;100.00;50575.09;4789109;29;20492;-68
2022/03/04 09:20:39;;;;;;;1.73;1.27;;;;;;;-149.78;100.00;50561.41;4799349;29;20095;-69
2022/03/04 09:23:05;;;;;;;1.52;1.10;;;;;;;-149.78;100.00;50579.00;4807858;29;20047;-68
2022/03/04 09:25:31;;;;;;;3.25;1.50;;;;;;;-149.78;100.00;50545.75;4808266;29;20045;-69
2022/03/04 09:27:57;;;;;;;1.83;1.17;;;;;;;-149.78;100.00;50539.91;4792118;29;20169;-68
2022/03/04 09:30:23;;;;;;;1.60;0.93;;;;;;;-149.78;100.00;50561.41;4806845;29;20177;-68
2022/03/04 09:32:49;;;;;;;2.28;1.13;;;;;;;-149.78;100.00;50579.00;4808187;29;20042;-68
2022/03/04 09:35:15;;;;;;;1.20;1.10;;;;;;;-149.78;100.00;50549.69;4808172;29;20087;-68
2022/03/04 09:37:41;;;;;;;1.13;1.00;;;;;;;-149.78;100.00;50588.78;4808106;29;20121;-68
2022/03/04 09:40:08;;;;;;;1.58;1.20;;;;;;;-149.78;100.00;50588.78;4808003;29;20042;-68
2022/03/04 09:42:34;;;;;;;2.20;1.20;;;;;;;-149.78;100.00;50631.81;4798363;29;20047;-67
2022/03/04 09:45:01;;;;;;;1.85;1.10;;;;;;;-149.78;100.00;50537.94;4826097;29;20400;-67
2022/03/04 09:47:28;;;;;;;3.22;1.20;;;;;;;-149.78;100.00;50571.19;4825995;29;20043;-69
2022/03/04 09:49:54;;;;;;;1.40;1.00;;;;;;;-149.78;100.00;50553.59;4824972;29;20382;-68
2022/03/04 09:52:20;;;;;;;1.20;1.10;;;;;;;-149.78;100.00;50535.97;4808734;29;20046;-68
2022/03/04 09:54:50;;;;;;;1.85;1.20;;;;;;;-149.78;100.00;50537.94;4810048;29;20035;-68
2022/03/04 09:57:16;;;;;;;1.92;1.35;;;;;;;-149.78;100.00;50535.97;4792936;29;20039;-67
2022/03/04 09:59:43;;;;;;;6.10;1.90;;;;;;;-149.78;100.00;50530.13;4825817;29;20498;-66
2022/03/04 10:02:12;;;;;;;3.05;1.48;;;;;;;-149.78;100.00;50539.91;4825448;29;20129;-67
2022/03/04 10:04:38;;;;;;;9.35;1.60;;;;;;;-149.78;100.00;50534.03;4807707;29;20034;-69
2022/03/04 10:07:17;;;;;;;2.53;1.55;;;;;;;-149.78;100.00;50532.06;4807548;29;20031;-69
2022/03/04 10:09:48;;;;;;;4.03;2.25;;;;;;;-149.78;100.00;50565.31;4806376;29;20063;-68
2022/03/04 10:12:15;;;;;;;3.65;2.10;;;;;;;-149.78;100.00;50541.84;4806919;29;20066;-68
2022/03/04 10:15:04;;;;;;;3.70;2.33;;;;;;;-149.78;100.00;50520.34;4806209;29;20041;-67
2022/03/04 10:17:32;;;;;;;3.78;2.00;;;;;;;-149.78;100.00;50537.94;4807267;29;20043;-67
2022/03/04 10:20:00;;;;;;;3.53;2.30;;;;;;;-149.78;100.00;50526.22;4807270;29;20035;-67
2022/03/04 10:22:46;;;;;;;3.10;1.92;;;;;;;-149.78;100.00;50553.59;4807278;29;20039;-68
2022/03/04 10:25:26;;;;;;;6.55;2.15;;;;;;;-149.78;100.00;50557.50;4807460;29;20157;-69
2022/03/04 10:27:52;;;;;;;3.47;1.90;;;;;;;-149.78;100.00;50537.94;4807247;29;20047;-69
2022/03/04 10:30:30;;;;;;;5.50;2.35;;;;;;;-149.78;100.00;50545.75;4807130;29;20062;-69
2022/03/04 10:33:07;;;;;;;2.53;1.90;;;;;;;-149.78;100.00;50537.94;4807131;29;20605;-69
2022/03/04 10:35:33;;;;;;;3.55;1.85;;;;;;;-149.78;100.00;50530.13;4804161;29;20054;-69
2022/03/04 10:37:59;;;;;;;2.72;1.45;;;;;;;-149.78;100.00;50535.97;4789010;30;20096;-69
2022/03/04 10:40:27;;;;;;;1.48;1.20;;;;;;;-149.78;100.00;50530.13;4788972;30;20043;-69
2022/03/04 10:42:57;;;;;;;1.98;1.20;;;;;;;-149.78;100.00;50575.09;4807482;29;20066;-69
2022/03/04 10:45:43;;;;;;;2.03;1.10;;;;;;;-149.78;100.00;50573.16;4808907;29;20432;-69
2022/03/04 10:48:13;;;;;;;5.70;1.75;;;;;;;-149.78;100.00;50553.59;4825099;29;20444;-68
2022/03/04 10:50:49;;;;;;;1.02;0.93;;;;;;;-149.78;100.00;50553.59;4808704;29;20042;-69
2022/03/04 10:53:23;;;;;;;2.47;1.38;;;;;;;-149.78;100.00;50539.91;4824725;29;20066;-70
2022/03/04 10:56:10;;;;;;;1.95;1.20;;;;;;;-149.78;100.00;50537.94;4825178;29;20065;-69
2022/03/04 10:58:39;;;;;;;1.92;1.30;;;;;;;-149.78;100.00;50565.31;4808806;29;20065;-69
2022/03/04 11:01:08;;;;;;;2.92;1.42;;;;;;;-149.78;100.00;50522.28;4808531;29;20046;-69
2022/03/04 11:03:34;;;;;;;1.83;1.30;;;;;;;-149.78;100.00;50534.03;4823426;29;20062;-70